BIHE weather

Herðubreiðarlindir Airport
Herðubreiðarlindir, Eastern Region, Iceland

Public forecast

Using degrees Celsius for public forecast. Weather courtesy of forecast.io.

METAR (pilot weather report)

Closest report is Egilsstaðir Airport, 45.5 nm (84.2 km) E. Retrieved 2019/06/20 09:00 UTC (16 minutes ago):

BIEG 200900Z 20004KT 9999 BKN025 OVC035 07/04 Q1006

TAF (pilot weather forecast)

Closest forecast is Egilsstaðir Airport, 45.5 nm (84.2 km) E. Retrieved 2019/06/20 09:24 UTC (0 seconds ago):

TAF BIEG 200716Z 2009/2109 01010KT 9999 SCT018 BKN025 OVC035 TX10/2015Z TN04/2104Z PROB40 TEMPO 2009/2109 -RADZ BKN010 OVC020